createdAt,value
2019-05-01T00:03:43.465Z,989.94
2019-05-01T00:07:21.669Z,989.79
2019-05-01T00:10:51.758Z,989.28
2019-05-01T00:14:22.289Z,989.11
2019-05-01T00:17:52.305Z,989.02
2019-05-01T00:21:22.328Z,988.94
2019-05-01T00:24:52.369Z,989.07
2019-05-01T00:28:22.485Z,989.3
2019-05-01T00:31:52.561Z,989.31
2019-05-01T00:35:22.524Z,989.24
2019-05-01T00:38:52.605Z,988.97
2019-05-01T00:42:22.628Z,988.9
2019-05-01T00:45:52.764Z,988.98
2019-05-01T00:49:22.948Z,988.95
2019-05-01T00:52:53.091Z,988.73
2019-05-01T00:56:31.894Z,988.56
2019-05-01T01:02:37.522Z,988.22
2019-05-01T01:06:07.893Z,988.19
2019-05-01T01:09:37.975Z,988.15
2019-05-01T01:13:07.958Z,987.99
2019-05-01T01:16:38.205Z,987.66
2019-05-01T01:20:08.435Z,987.41
2019-05-01T01:23:38.517Z,987.5
2019-05-01T01:27:08.686Z,987.46
2019-05-01T01:30:38.871Z,987.55
2019-05-01T01:34:09.014Z,987.17
2019-05-01T01:37:39.117Z,987.43
2019-05-01T01:41:09.715Z,987.24
2019-05-01T01:44:47.901Z,987.21
2019-05-01T01:48:18.166Z,987.38
2019-05-01T01:51:49.951Z,987.33
2019-05-01T01:55:20.031Z,987.29
2019-05-01T01:58:51.010Z,987.39
2019-05-01T02:02:33.831Z,987.38
2019-05-01T02:06:04.071Z,987.41
2019-05-01T02:09:34.244Z,987.42
2019-05-01T02:13:04.522Z,987.19
2019-05-01T02:16:34.565Z,986.99
2019-05-01T02:20:06.718Z,986.88
2019-05-01T02:23:36.800Z,986.96
2019-05-01T02:27:13.287Z,987.01
2019-05-01T02:31:05.317Z,986.95
2019-05-01T02:34:36.920Z,986.79
2019-05-01T02:38:08.803Z,986.68
2019-05-01T02:41:41.992Z,986.5
2019-05-01T02:45:12.153Z,986.5
2019-05-01T02:48:52.876Z,986.41
2019-05-01T02:52:30.566Z,986.42
2019-05-01T02:56:42.601Z,986.68
2019-05-01T03:00:16.312Z,986.94
2019-05-01T03:03:48.017Z,987.09
2019-05-01T03:07:19.425Z,987.27
2019-05-01T03:10:49.570Z,987.34
2019-05-01T03:14:22.826Z,987.34
2019-05-01T03:18:03.745Z,987.49
2019-05-01T03:21:39.807Z,987.26
2019-05-01T03:25:10.774Z,987.41
2019-05-01T03:28:41.033Z,987.89
2019-05-01T03:32:17.823Z,988.38
2019-05-01T03:35:48.811Z,989.22
2019-05-01T03:39:19.308Z,990.02
2019-05-01T03:42:49.744Z,990.6
2019-05-01T03:46:20.027Z,991.19
2019-05-01T03:49:50.655Z,991.81
2019-05-01T03:53:22.022Z,992.24
2019-05-01T03:56:52.200Z,992.69
2019-05-01T04:00:41.262Z,993.03
2019-05-01T04:04:15.094Z,993.67
2019-05-01T04:07:46.071Z,994.1
2019-05-01T04:11:16.129Z,994.5
2019-05-01T04:14:47.039Z,994.93
2019-05-01T04:18:17.508Z,995.28
2019-05-01T04:21:54.355Z,995.58
2019-05-01T04:25:24.802Z,995.07
2019-05-01T04:29:05.765Z,995.16
2019-05-01T04:32:50.877Z,995.43
2019-05-01T04:36:27.620Z,995.46
2019-05-01T04:39:57.791Z,995.77
2019-05-01T04:43:27.977Z,995.5
2019-05-01T04:46:58.397Z,996.19
2019-05-01T04:50:28.592Z,996.83
2019-05-01T04:53:59.905Z,997.16
2019-05-01T04:57:45.023Z,997.33
2019-05-01T05:00:16.466Z,997.93
2019-05-01T05:03:46.674Z,998.45
2019-05-01T05:07:17.122Z,999.24
2019-05-01T05:10:48.009Z,1000.47
2019-05-01T05:14:22.500Z,1001.09
2019-05-01T05:17:52.865Z,1001.6
2019-05-01T05:21:23.004Z,1002.23
2019-05-01T05:24:53.427Z,1002.34
2019-05-01T05:28:24.966Z,1002.26
2019-05-01T05:31:59.452Z,1001.8
2019-05-01T05:35:31.485Z,1001.3
2019-05-01T05:39:10.660Z,1001.53
2019-05-01T05:42:40.869Z,1002.33
2019-05-01T05:46:11.504Z,1003.03
2019-05-01T05:49:41.497Z,1002.75
2019-05-01T05:53:29.571Z,1002.72
2019-05-01T05:57:02.349Z,1002.83
2019-05-01T06:01:17.104Z,1003.54
2019-05-01T06:05:04.582Z,1004.69
2019-05-01T06:08:39.008Z,1004.82
2019-05-01T06:12:48.980Z,1005.16
2019-05-01T06:16:30.229Z,1005.44
2019-05-01T06:21:22.606Z,1005.75
2019-05-01T06:24:58.266Z,1004.76
2019-05-01T06:28:29.626Z,1005.12
2019-05-01T06:32:00.077Z,1005.33
2019-05-01T06:35:33.931Z,1004.75
2019-05-01T06:39:11.622Z,1004.43
2019-05-01T06:42:45.650Z,1003.81
2019-05-01T06:46:27.177Z,1004.28
2019-05-01T06:50:08.068Z,1004.15
2019-05-01T06:53:39.987Z,1003.88
2019-05-01T06:57:12.218Z,1003.81
2019-05-01T07:00:18.057Z,1003.8
2019-05-01T07:04:02.930Z,1003.88
2019-05-01T07:07:34.465Z,1003.99
2019-05-01T07:11:04.661Z,1004.69
2019-05-01T07:14:35.050Z,1005.27
2019-05-01T07:18:05.207Z,1006.11
2019-05-01T07:21:35.712Z,1007.3
2019-05-01T07:25:06.538Z,1008.17
2019-05-01T07:28:37.950Z,1008.11
2019-05-01T07:32:08.167Z,1008.72
2019-05-01T07:35:38.516Z,1010.33
2019-05-01T07:39:09.811Z,1011.08
2019-05-01T07:42:48.469Z,1011.1
2019-05-01T07:46:29.403Z,1010.86
2019-05-01T07:50:05.355Z,1011.06
2019-05-01T07:53:36.271Z,1011.61
2019-05-01T07:57:06.390Z,1011.46
2019-05-01T08:00:47.132Z,1011.87
2019-05-01T08:04:19.755Z,1011.71
2019-05-01T08:07:57.765Z,1010.56
2019-05-01T08:11:28.073Z,1010.02
2019-05-01T08:14:57.967Z,1010.13
2019-05-01T08:18:36.223Z,1009.78
2019-05-01T08:22:11.222Z,1010.9
2019-05-01T08:25:41.324Z,1012.34
2019-05-01T08:31:41.492Z,1013
2019-05-01T08:35:13.471Z,1013.67
2019-05-01T08:38:43.572Z,1013.68
2019-05-01T08:42:13.625Z,1013.7
2019-05-01T08:46:03.564Z,1013.46
2019-05-01T08:49:49.506Z,1013.95
2019-05-01T08:53:22.147Z,1015.12
2019-05-01T08:56:58.218Z,1015.89
2019-05-01T09:00:16.382Z,1016.38
2019-05-01T09:03:49.641Z,1016.93
2019-05-01T09:07:24.249Z,1017.33
2019-05-01T09:10:54.817Z,1017.91
2019-05-01T09:14:29.731Z,1018.48
2019-05-01T09:18:04.593Z,1019.31
2019-05-01T09:21:37.991Z,1020.47
2019-05-01T09:25:10.876Z,1022.47
2019-05-01T09:28:45.202Z,1021.73
2019-05-01T09:32:15.469Z,1020.68
2019-05-01T09:35:46.744Z,1020.85
2019-05-01T09:39:17.629Z,1021.86
2019-05-01T09:42:47.938Z,1023.96
2019-05-01T09:46:18.001Z,1025.01
2019-05-01T09:49:48.840Z,1024.05
2019-05-01T09:53:34.312Z,1022.28
2019-05-01T09:57:05.501Z,1020.58
2019-05-01T10:00:35.617Z,1021.83
2019-05-01T10:04:06.782Z,1022.34
2019-05-01T10:07:36.870Z,1022.35
2019-05-01T10:11:07.065Z,1022.14
2019-05-01T10:14:37.468Z,1022.11
2019-05-01T10:18:07.699Z,1021.61
2019-05-01T10:21:37.752Z,1022.04
2019-05-01T10:25:08.528Z,1023.58
2019-05-01T10:29:05.567Z,1026.48
2019-05-01T10:32:39.990Z,1027.73
2019-05-01T10:36:31.914Z,1027.01
2019-05-01T10:40:02.973Z,1026.48
2019-05-01T10:43:33.096Z,1026.14
2019-05-01T10:47:03.323Z,1028.44
2019-05-01T10:50:33.311Z,1028.1
2019-05-01T10:54:03.617Z,1027.77
2019-05-01T10:57:35.245Z,1029.4
2019-05-01T11:00:16.328Z,1029.79
2019-05-01T11:03:46.376Z,1030.05
2019-05-01T11:07:18.154Z,1028.71
2019-05-01T11:10:48.268Z,1029.08
2019-05-01T11:14:18.374Z,1029.89
2019-05-01T11:17:48.368Z,1031.32
2019-05-01T11:21:18.474Z,1031.07
2019-05-01T11:24:48.444Z,1031.75
2019-05-01T11:28:18.584Z,1031.08
2019-05-01T11:31:59.344Z,1032.17
2019-05-01T11:38:15.266Z,1031.84
2019-05-01T11:41:50.444Z,1031.92
2019-05-01T11:45:20.750Z,1031.89
2019-05-01T11:48:50.732Z,1032.52
2019-05-01T11:52:20.830Z,1034.18
2019-05-01T11:55:50.869Z,1028.62
2019-05-01T11:59:20.918Z,1029.91
2019-05-01T12:02:50.910Z,1032.18
2019-05-01T12:06:23.010Z,1034.01
2019-05-01T12:09:54.260Z,1034.5
2019-05-01T12:13:24.337Z,1032.48
2019-05-01T12:17:03.696Z,1034.02
2019-05-01T12:20:33.801Z,1036.73
2019-05-01T12:24:03.894Z,1033.93
2019-05-01T12:27:33.961Z,1034.81
2019-05-01T12:31:03.899Z,1033.9
2019-05-01T12:34:34.013Z,1030.57
2019-05-01T12:38:04.264Z,1030.91
2019-05-01T12:41:40.398Z,1030.69
2019-05-01T12:45:13.351Z,1028.44
2019-05-01T12:48:43.357Z,1029.75
2019-05-01T12:52:23.826Z,1030.92
2019-05-01T12:56:13.742Z,1034.61
2019-05-01T12:59:43.895Z,1034.85
2019-05-01T13:00:33.237Z,1035.2
2019-05-01T13:04:03.420Z,1031.81
2019-05-01T13:07:33.716Z,1029.83
2019-05-01T13:11:05.097Z,1031.65
2019-05-01T13:14:35.053Z,1031.65
2019-05-01T13:18:05.145Z,1032.69
2019-05-01T13:21:35.153Z,1035.41
2019-05-01T13:25:05.491Z,1038.73
2019-05-01T13:29:11.443Z,1038.09
2019-05-01T13:32:46.513Z,1037.48
2019-05-01T13:36:16.619Z,1036.14
2019-05-01T13:39:46.742Z,1036.57
2019-05-01T13:43:16.897Z,1036.44
2019-05-01T13:46:47.027Z,1037.42
2019-05-01T13:50:17.154Z,1039.15
2019-05-01T13:53:47.327Z,1038.4
2019-05-01T13:57:17.526Z,1040.37
2019-05-01T14:00:47.688Z,1038.38
2019-05-01T14:04:17.744Z,1039.6
2019-05-01T14:07:47.789Z,1044.03
2019-05-01T14:11:18.762Z,1048.85
2019-05-01T14:14:48.953Z,1052.03
2019-05-01T14:18:19.062Z,1056.15
2019-05-01T14:21:57.179Z,1056.24
2019-05-01T14:25:56.681Z,1057.04
2019-05-01T14:29:26.768Z,1058.44
2019-05-01T14:32:56.807Z,1060.17
2019-05-01T14:36:26.817Z,1060.42
2019-05-01T14:39:56.936Z,1062.29
2019-05-01T14:43:27.056Z,1063.53
2019-05-01T14:46:57.162Z,1057.02
2019-05-01T14:50:27.252Z,1056.37
2019-05-01T14:53:57.285Z,1055.59
2019-05-01T14:57:27.436Z,1048.91
2019-05-01T15:00:15.866Z,1041.95
2019-05-01T15:03:45.934Z,1039.77
2019-05-01T15:07:15.970Z,1033.99
2019-05-01T15:10:46.113Z,1029.45
2019-05-01T15:14:24.742Z,1026.66
2019-05-01T15:18:14.988Z,1024.67
2019-05-01T15:21:44.981Z,1023.71
2019-05-01T15:25:15.180Z,1022.9
2019-05-01T15:28:45.176Z,1023.13
2019-05-01T15:32:15.240Z,1022.8
2019-05-01T15:35:45.326Z,1024.39
2019-05-01T15:39:26.244Z,1025.59
2019-05-01T15:43:00.377Z,1026.49
2019-05-01T15:46:30.653Z,1026.21
2019-05-01T15:50:00.737Z,1024.81
2019-05-01T15:53:30.851Z,1024.56
2019-05-01T15:57:00.952Z,1024.66
2019-05-01T16:00:31.037Z,1024.05
2019-05-01T16:04:01.235Z,1022.93
2019-05-01T16:07:31.220Z,1020.99
2019-05-01T16:11:10.076Z,1019.78
2019-05-01T16:14:40.575Z,1019.14
2019-05-01T16:18:11.009Z,1018.14
2019-05-01T16:21:41.273Z,1017.04
2019-05-01T16:25:11.523Z,1016.22
2019-05-01T16:28:41.683Z,1014.1
2019-05-01T16:32:11.763Z,1012.2
2019-05-01T16:35:41.883Z,1010.93
2019-05-01T16:41:33.110Z,1009.69
2019-05-01T16:45:04.948Z,1009.6
2019-05-01T16:48:35.099Z,1009.17
2019-05-01T16:52:05.230Z,1009.33
2019-05-01T16:55:35.277Z,1008.46
2019-05-01T16:59:05.325Z,1008.22
2019-05-01T17:00:18.953Z,1008.05
2019-05-01T17:04:59.132Z,1007.63
2019-05-01T17:09:21.032Z,1007.42
2019-05-01T17:12:52.643Z,1007.27
2019-05-01T17:16:24.642Z,1006.32
2019-05-01T17:19:54.751Z,1005.51
2019-05-01T17:23:24.880Z,1005.54
2019-05-01T17:26:55.040Z,1006.05
2019-05-01T17:30:38.775Z,1006.36
2019-05-01T17:34:09.795Z,1006.61
2019-05-01T17:37:39.876Z,1006.58
2019-05-01T17:41:09.915Z,1006.67
2019-05-01T17:44:39.893Z,1006.92
2019-05-01T17:48:10.037Z,1007.12
2019-05-01T17:51:42.663Z,1007.27
2019-05-01T17:55:16.483Z,1007.45
2019-05-01T17:58:46.585Z,1007.64
2019-05-01T18:02:27.393Z,1007.12
2019-05-01T18:06:06.986Z,1006.77
2019-05-01T18:09:37.024Z,1005.62
2019-05-01T18:13:07.236Z,1004.91
2019-05-01T18:16:38.267Z,1004.2
2019-05-01T18:20:08.654Z,1003.75
2019-05-01T18:24:12.957Z,1003.77
2019-05-01T18:28:30.101Z,1003.34
2019-05-01T18:32:02.943Z,1003.06
2019-05-01T18:35:37.864Z,1003.01
2019-05-01T18:39:16.869Z,1002.7
2019-05-01T18:42:47.187Z,1002.52
2019-05-01T18:46:17.488Z,1001.83
2019-05-01T18:49:47.395Z,1001.82
2019-05-01T18:53:18.073Z,1001.86
2019-05-01T18:56:48.809Z,1001.92
2019-05-01T19:00:15.371Z,1001.86
2019-05-01T19:03:45.527Z,1001.95
2019-05-01T19:07:15.577Z,1001.75
2019-05-01T19:10:46.153Z,1001.68
2019-05-01T19:14:18.068Z,1001.15
2019-05-01T19:17:50.305Z,1001.26
2019-05-01T19:21:24.608Z,1001.35
2019-05-01T19:24:57.009Z,1001.7
2019-05-01T19:28:27.552Z,1001.74
2019-05-01T19:31:58.118Z,1002.08
2019-05-01T19:35:28.993Z,1002.36
2019-05-01T19:39:06.853Z,1002.08
2019-05-01T19:42:43.623Z,1001.84
2019-05-01T19:46:14.443Z,1002.07
2019-05-01T19:49:45.007Z,1002.39
2019-05-01T19:53:15.918Z,1002.36
2019-05-01T19:56:46.317Z,1002.23
2019-05-01T20:00:50.528Z,1001.89
2019-05-01T20:04:20.821Z,1001.42
2019-05-01T20:07:51.256Z,1001.51
2019-05-01T20:11:25.751Z,1001.25
2019-05-01T20:14:56.032Z,1000.89
2019-05-01T20:18:26.570Z,1000.76
2019-05-01T20:21:56.792Z,1000.59
2019-05-01T20:25:26.945Z,1000.37
2019-05-01T20:28:57.512Z,1000.32
2019-05-01T20:32:30.504Z,1000.05
2019-05-01T20:36:04.850Z,999.9
2019-05-01T20:39:35.556Z,999.72
2019-05-01T20:43:07.118Z,999.59
2019-05-01T20:46:37.373Z,999.66
2019-05-01T20:50:15.365Z,999.9
2019-05-01T20:53:45.438Z,999.95
2019-05-01T20:57:23.580Z,999.91
2019-05-01T21:00:18.651Z,1000.22
2019-05-01T21:04:02.046Z,1000.19
2019-05-01T21:07:36.162Z,999.17
2019-05-01T21:11:10.951Z,998.55
2019-05-01T21:14:45.271Z,998.22
2019-05-01T21:18:20.923Z,998.63
2019-05-01T21:21:56.338Z,998.84
2019-05-01T21:25:26.477Z,999.18
2019-05-01T21:28:56.584Z,999.45
2019-05-01T21:32:27.639Z,998.86
2019-05-01T21:35:59.459Z,998.42
2019-05-01T21:39:33.804Z,998.46
2019-05-01T21:43:03.923Z,998.82
2019-05-01T21:46:34.147Z,998.69
2019-05-01T21:50:04.492Z,998.3
2019-05-01T21:53:37.271Z,997.46
2019-05-01T21:57:16.702Z,997.09
2019-05-01T22:00:47.639Z,996.49
2019-05-01T22:04:17.768Z,996.19
2019-05-01T22:07:47.904Z,995.79
2019-05-01T22:11:18.006Z,994.78
2019-05-01T22:14:53.942Z,994.22
2019-05-01T22:19:29.550Z,993.23
2019-05-01T22:23:04.055Z,992.53
2019-05-01T22:26:37.068Z,992.22
2019-05-01T22:30:46.407Z,992.21
2019-05-01T22:34:53.649Z,992
2019-05-01T22:38:23.714Z,992.05
2019-05-01T22:41:53.953Z,992.34
2019-05-01T22:45:24.920Z,992.19
2019-05-01T22:48:54.985Z,992.03
2019-05-01T22:52:24.987Z,991.68
2019-05-01T22:55:57.301Z,991.44
2019-05-01T22:59:31.759Z,991.33
2019-05-01T23:00:25.391Z,991.33
2019-05-01T23:03:58.827Z,990.88
2019-05-01T23:07:28.839Z,989.3
2019-05-01T23:10:59.055Z,986.6
2019-05-01T23:14:29.904Z,985.17
2019-05-01T23:17:59.990Z,983.47
2019-05-01T23:21:29.941Z,981.97
2019-05-01T23:25:01.785Z,980.84
2019-05-01T23:28:34.920Z,980.41
2019-05-01T23:32:09.538Z,979.93
2019-05-01T23:35:39.597Z,979.67
2019-05-01T23:39:11.583Z,979.58
2019-05-01T23:42:43.242Z,979.8
2019-05-01T23:46:19.780Z,980.16
2019-05-01T23:49:52.488Z,980.21
2019-05-01T23:53:23.864Z,980.3
2019-05-01T23:56:53.901Z,980.33
